createdAt,value
2023-02-27T00:03:02.334Z,100493.78
2023-02-27T00:06:31.099Z,100499.25
2023-02-27T00:10:11.787Z,100513.62
2023-02-27T00:17:28.904Z,100523.25
2023-02-27T00:20:56.829Z,100522.00
2023-02-27T00:24:33.634Z,100531.16
2023-02-27T00:28:08.587Z,100529.69
2023-02-27T00:31:37.380Z,100535.00
2023-02-27T00:39:08.848Z,100538.69
2023-02-27T00:42:39.352Z,100538.97
2023-02-27T00:46:12.380Z,100544.88
2023-02-27T00:49:48.934Z,100546.75
2023-02-27T00:53:23.096Z,100549.16
2023-02-27T00:57:00.489Z,100552.41
2023-02-27T01:00:35.910Z,100563.50
2023-02-27T01:04:14.144Z,100562.63
2023-02-27T01:07:50.334Z,100565.91
2023-02-27T01:11:24.784Z,100569.22
2023-02-27T01:14:59.016Z,100565.09
2023-02-27T01:18:34.542Z,100565.84
2023-02-27T01:22:13.321Z,100561.28
2023-02-27T01:25:44.481Z,100551.84
2023-02-27T01:29:25.587Z,100554.72
2023-02-27T01:32:56.701Z,100555.28
2023-02-27T01:36:19.511Z,100562.44
2023-02-27T01:39:37.664Z,100559.59
2023-02-27T01:43:18.204Z,100557.62
2023-02-27T01:46:59.497Z,100561.66
2023-02-27T01:50:23.107Z,100561.84
2023-02-27T01:57:28.173Z,100564.19
2023-02-27T02:01:20.752Z,100561.22
2023-02-27T02:04:53.236Z,100572.91
2023-02-27T02:08:20.420Z,100583.41
2023-02-27T02:12:00.040Z,100589.25
2023-02-27T02:15:43.035Z,100593.41
2023-02-27T02:19:44.466Z,100597.25
2023-02-27T02:23:45.069Z,100598.59
2023-02-27T02:27:20.289Z,100603.63
2023-02-27T02:31:16.047Z,100616.31
2023-02-27T02:35:31.667Z,100616.09
2023-02-27T02:39:15.025Z,100609.03
2023-02-27T02:42:55.037Z,100625.53
2023-02-27T02:47:04.007Z,100627.16
2023-02-27T02:50:37.870Z,100622.06
2023-02-27T02:54:11.742Z,100625.19
2023-02-27T02:58:00.123Z,100633.63
2023-02-27T03:01:49.366Z,100636.87
2023-02-27T03:05:28.679Z,100629.12
2023-02-27T03:09:20.830Z,100634.00
2023-02-27T03:12:59.763Z,100635.69
2023-02-27T03:16:41.896Z,100647.56
2023-02-27T03:20:09.889Z,100645.75
2023-02-27T03:23:52.013Z,100655.72
2023-02-27T03:27:40.035Z,100658.53
2023-02-27T03:31:23.702Z,100669.72
2023-02-27T03:34:46.118Z,100668.69
2023-02-27T03:38:47.873Z,100668.16
2023-02-27T03:42:39.387Z,100665.81
2023-02-27T03:46:07.511Z,100674.59
2023-02-27T03:49:35.774Z,100685.38
2023-02-27T03:53:21.060Z,100691.41
2023-02-27T03:57:04.254Z,100681.44
2023-02-27T04:00:39.914Z,100690.16
2023-02-27T04:04:17.041Z,100687.81
2023-02-27T04:08:01.143Z,100695.22
2023-02-27T04:11:45.902Z,100695.56
2023-02-27T04:15:47.870Z,100690.53
2023-02-27T04:19:39.662Z,100697.25
2023-02-27T04:23:27.406Z,100699.50
2023-02-27T04:26:58.458Z,100706.31
2023-02-27T04:30:45.667Z,100706.78
2023-02-27T04:34:42.739Z,100704.00
2023-02-27T04:38:29.593Z,100705.50
2023-02-27T04:41:57.754Z,100715.22
2023-02-27T04:45:36.183Z,100707.13
2023-02-27T04:49:18.044Z,100712.09
2023-02-27T04:53:02.152Z,100710.19
2023-02-27T04:56:28.877Z,100723.78
2023-02-27T05:00:16.995Z,100730.50
2023-02-27T05:03:55.589Z,100727.16
2023-02-27T05:07:43.796Z,100723.84
2023-02-27T05:11:53.364Z,100733.59
2023-02-27T05:15:35.023Z,100734.88
2023-02-27T05:18:52.601Z,100745.72
2023-02-27T05:22:52.016Z,100748.41
2023-02-27T05:26:43.639Z,100753.34
2023-02-27T05:30:27.283Z,100766.56
2023-02-27T05:34:01.667Z,100766.31
2023-02-27T05:37:41.040Z,100762.25
2023-02-27T05:41:27.754Z,100772.06
2023-02-27T05:45:18.440Z,100774.66
2023-02-27T05:49:00.767Z,100779.06
2023-02-27T05:52:42.504Z,100775.94
2023-02-27T05:56:22.943Z,100782.78
2023-02-27T06:00:14.141Z,100794.62
2023-02-27T06:03:54.388Z,100797.59
2023-02-27T06:07:37.444Z,100806.50
2023-02-27T06:11:13.431Z,100811.34
2023-02-27T06:14:48.390Z,100815.88
2023-02-27T06:18:06.326Z,100826.69
2023-02-27T06:21:40.258Z,100830.47
2023-02-27T06:25:09.719Z,100846.78
2023-02-27T06:28:38.970Z,100848.59
2023-02-27T06:32:17.288Z,100857.47
2023-02-27T06:35:54.134Z,100860.81
2023-02-27T06:39:34.018Z,100875.31
2023-02-27T06:42:57.986Z,100880.66
2023-02-27T06:46:26.470Z,100886.84
2023-02-27T06:49:58.927Z,100899.91
2023-02-27T06:53:35.490Z,100902.91
2023-02-27T06:57:10.281Z,100903.44
2023-02-27T07:00:37.712Z,100906.88
2023-02-27T07:04:15.244Z,100910.03
2023-02-27T07:08:13.463Z,100909.97
2023-02-27T07:12:33.335Z,100915.19
2023-02-27T07:16:30.207Z,100918.69
2023-02-27T07:20:58.743Z,100926.78
2023-02-27T07:24:37.633Z,100934.97
2023-02-27T07:28:00.443Z,100928.87
2023-02-27T07:31:28.963Z,100938.44
2023-02-27T07:35:31.799Z,100938.84
2023-02-27T07:39:16.598Z,100933.66
2023-02-27T07:43:01.099Z,100943.38
2023-02-27T07:46:47.552Z,100938.00
2023-02-27T07:50:32.454Z,100939.66
2023-02-27T07:54:02.089Z,100941.03
2023-02-27T07:58:02.912Z,100945.44
2023-02-27T08:01:36.463Z,100949.91
2023-02-27T08:05:12.326Z,100956.50
2023-02-27T08:09:20.948Z,100950.59
2023-02-27T08:16:46.755Z,100970.47
2023-02-27T08:21:19.683Z,100974.47
2023-02-27T08:24:24.156Z,100981.59
2023-02-27T08:28:07.170Z,100990.25
2023-02-27T08:47:22.231Z,101012.25
2023-02-27T08:55:28.112Z,101013.37
2023-02-27T09:02:32.984Z,101013.03
2023-02-27T09:03:06.427Z,101012.69
2023-02-27T09:10:59.630Z,101016.97
2023-02-27T09:14:52.935Z,101018.78
2023-02-27T09:18:44.368Z,101028.97
2023-02-27T09:34:21.328Z,101038.78
2023-02-27T10:03:06.691Z,101033.41
2023-02-27T10:06:54.867Z,101034.56
2023-02-27T10:20:24.559Z,101051.69
2023-02-27T10:33:14.842Z,101044.63
2023-02-27T10:37:03.530Z,101040.56
2023-02-27T10:40:42.733Z,101037.37
2023-02-27T10:44:19.078Z,101030.28
2023-02-27T10:47:57.517Z,101033.44
2023-02-27T10:51:21.513Z,101037.84
2023-02-27T10:54:46.402Z,101034.97
2023-02-27T10:58:35.144Z,101030.13
2023-02-27T11:02:32.564Z,101026.97
2023-02-27T11:06:16.327Z,101030.03
2023-02-27T11:10:14.041Z,101038.38
2023-02-27T11:13:49.075Z,101033.53
2023-02-27T11:17:23.776Z,101035.91
2023-02-27T11:21:31.814Z,101038.16
2023-02-27T11:32:53.379Z,101045.06
2023-02-27T11:36:43.740Z,101048.31
2023-02-27T11:52:33.507Z,101036.81
2023-02-27T11:57:17.107Z,101025.19
2023-02-27T12:04:56.840Z,101024.16
2023-02-27T12:16:38.582Z,101025.16
2023-02-27T12:20:42.135Z,101032.28
2023-02-27T12:37:34.483Z,101047.28
2023-02-27T12:41:39.793Z,101051.19
2023-02-27T12:46:12.700Z,101054.44
2023-02-27T12:51:41.626Z,101058.75
2023-02-27T12:55:35.908Z,101052.56
2023-02-27T13:11:38.692Z,101057.31
2023-02-27T14:15:16.238Z,101064.25
2023-02-27T14:25:27.379Z,101069.88
2023-02-27T15:03:47.190Z,101093.06
2023-02-27T15:08:50.106Z,101095.44
2023-02-27T15:12:46.607Z,101105.34
2023-02-27T15:17:50.264Z,101108.53
2023-02-27T15:26:45.389Z,101116.00
2023-02-27T15:31:27.316Z,101127.59
2023-02-27T15:43:09.057Z,101155.22
2023-02-27T15:47:30.937Z,101156.44
2023-02-27T23:59:28.173Z,101601.53
